AUN weather

Auburn Municipal Airport
Auburn, California, United States

Public forecast

Using degrees Fahrenheit for public forecast. Weather courtesy of forecast.io.

Current aviation weather report (METAR) for Auburn Municipal Airport

Retrieved 2019/11/13 10:35 UTC (25 minutes ago):

KAUN 131035Z AUTO 00000KT 10SM CLR 15/M03 A3002 RMK A01

Closest aviation forecast (TAF) to Auburn Municipal Airport

Forecast is more than 6 hours old.

Closest forecast is Beale Air Force Base, 19.8 nm (36.7 km) WNW. Retrieved 2019-11-13 03:03 UTC (8 hours ago):

TAF TAF KBAB 130300Z 1303/1409 VRB06KT 9999 SCT210 QNH2991INS TX25/1320Z TN11/1314Z